sensor_id;sensor_type;location;lat;lon;timestamp;P1;durP1;ratioP1;P2;durP2;ratioP2
77722;SDS011;67811;42.656;23.394;2024-02-21T00:02:45;6.65;;;3.75;;
77722;SDS011;67811;42.656;23.394;2024-02-21T00:06:50;7.88;;;3.67;;
77722;SDS011;67811;42.656;23.394;2024-02-21T00:10:55;6.47;;;3.30;;
77722;SDS011;67811;42.656;23.394;2024-02-21T00:15:01;8.50;;;4.43;;
77722;SDS011;67811;42.656;23.394;2024-02-21T00:19:06;10.23;;;4.35;;
77722;SDS011;67811;42.656;23.394;2024-02-21T00:23:11;7.20;;;3.78;;
77722;SDS011;67811;42.656;23.394;2024-02-21T00:27:16;7.63;;;4.27;;
77722;SDS011;67811;42.656;23.394;2024-02-21T00:31:22;6.80;;;4.15;;
77722;SDS011;67811;42.656;23.394;2024-02-21T00:35:27;8.90;;;3.90;;
77722;SDS011;67811;42.656;23.394;2024-02-21T00:39:32;7.07;;;3.38;;
77722;SDS011;67811;42.656;23.394;2024-02-21T00:43:37;8.20;;;4.30;;
77722;SDS011;67811;42.656;23.394;2024-02-21T00:47:42;7.90;;;4.65;;
77722;SDS011;67811;42.656;23.394;2024-02-21T00:51:48;8.10;;;3.65;;
77722;SDS011;67811;42.656;23.394;2024-02-21T00:55:53;6.23;;;3.73;;
77722;SDS011;67811;42.656;23.394;2024-02-21T00:59:58;6.67;;;3.93;;
77722;SDS011;67811;42.656;23.394;2024-02-21T01:04:03;6.40;;;3.73;;
77722;SDS011;67811;42.656;23.394;2024-02-21T01:08:09;6.20;;;3.30;;
77722;SDS011;67811;42.656;23.394;2024-02-21T01:12:14;5.23;;;2.83;;
77722;SDS011;67811;42.656;23.394;2024-02-21T01:16:19;5.22;;;3.20;;
77722;SDS011;67811;42.656;23.394;2024-02-21T01:20:24;6.80;;;3.72;;
77722;SDS011;67811;42.656;23.394;2024-02-21T01:24:30;6.10;;;3.70;;
77722;SDS011;67811;42.656;23.394;2024-02-21T01:28:35;8.50;;;4.57;;
77722;SDS011;67811;42.656;23.394;2024-02-21T01:32:40;5.53;;;3.45;;
77722;SDS011;67811;42.656;23.394;2024-02-21T01:36:45;6.47;;;3.00;;
77722;SDS011;67811;42.656;23.394;2024-02-21T01:40:51;6.17;;;3.30;;
77722;SDS011;67811;42.656;23.394;2024-02-21T01:44:56;6.85;;;2.70;;
77722;SDS011;67811;42.656;23.394;2024-02-21T01:49:01;5.57;;;3.23;;
77722;SDS011;67811;42.656;23.394;2024-02-21T01:53:07;6.47;;;4.00;;
77722;SDS011;67811;42.656;23.394;2024-02-21T01:57:13;8.38;;;3.50;;
77722;SDS011;67811;42.656;23.394;2024-02-21T02:01:18;5.95;;;3.80;;
77722;SDS011;67811;42.656;23.394;2024-02-21T02:05:24;7.13;;;4.37;;
77722;SDS011;67811;42.656;23.394;2024-02-21T02:09:29;6.33;;;3.47;;
77722;SDS011;67811;42.656;23.394;2024-02-21T02:13:34;6.23;;;3.37;;
77722;SDS011;67811;42.656;23.394;2024-02-21T02:17:39;7.55;;;3.90;;
77722;SDS011;67811;42.656;23.394;2024-02-21T02:21:46;7.68;;;4.13;;
77722;SDS011;67811;42.656;23.394;2024-02-21T02:25:54;7.50;;;4.72;;
77722;SDS011;67811;42.656;23.394;2024-02-21T02:29:59;8.15;;;4.50;;
77722;SDS011;67811;42.656;23.394;2024-02-21T02:34:05;8.85;;;4.45;;
77722;SDS011;67811;42.656;23.394;2024-02-21T02:38:10;9.85;;;7.03;;
77722;SDS011;67811;42.656;23.394;2024-02-21T02:42:15;8.50;;;5.67;;
77722;SDS011;67811;42.656;23.394;2024-02-21T02:46:20;9.05;;;4.97;;
77722;SDS011;67811;42.656;23.394;2024-02-21T02:50:26;8.90;;;4.68;;
77722;SDS011;67811;42.656;23.394;2024-02-21T02:54:32;8.40;;;4.70;;
77722;SDS011;67811;42.656;23.394;2024-02-21T02:58:37;10.65;;;5.47;;
77722;SDS011;67811;42.656;23.394;2024-02-21T03:02:43;7.38;;;3.72;;
77722;SDS011;67811;42.656;23.394;2024-02-21T03:06:51;8.90;;;5.10;;
77722;SDS011;67811;42.656;23.394;2024-02-21T03:10:56;9.60;;;5.63;;
77722;SDS011;67811;42.656;23.394;2024-02-21T03:15:01;11.10;;;5.93;;
77722;SDS011;67811;42.656;23.394;2024-02-21T03:19:07;10.27;;;5.80;;
77722;SDS011;67811;42.656;23.394;2024-02-21T03:23:12;9.60;;;4.95;;
77722;SDS011;67811;42.656;23.394;2024-02-21T03:27:17;10.53;;;6.27;;
77722;SDS011;67811;42.656;23.394;2024-02-21T03:31:23;11.13;;;5.50;;
77722;SDS011;67811;42.656;23.394;2024-02-21T03:35:29;10.68;;;5.68;;
77722;SDS011;67811;42.656;23.394;2024-02-21T03:39:34;9.03;;;4.97;;
77722;SDS011;67811;42.656;23.394;2024-02-21T03:43:39;10.32;;;6.72;;
77722;SDS011;67811;42.656;23.394;2024-02-21T03:47:45;10.73;;;5.63;;
77722;SDS011;67811;42.656;23.394;2024-02-21T03:51:50;12.37;;;7.00;;
77722;SDS011;67811;42.656;23.394;2024-02-21T03:55:55;12.17;;;6.83;;
77722;SDS011;67811;42.656;23.394;2024-02-21T04:00:01;10.13;;;5.95;;
77722;SDS011;67811;42.656;23.394;2024-02-21T04:04:06;8.50;;;4.60;;
77722;SDS011;67811;42.656;23.394;2024-02-21T04:08:11;12.30;;;6.60;;
77722;SDS011;67811;42.656;23.394;2024-02-21T04:12:16;15.88;;;6.78;;
77722;SDS011;67811;42.656;23.394;2024-02-21T04:16:22;11.60;;;6.45;;
77722;SDS011;67811;42.656;23.394;2024-02-21T04:20:27;10.90;;;6.03;;
77722;SDS011;67811;42.656;23.394;2024-02-21T04:24:32;12.77;;;6.95;;
77722;SDS011;67811;42.656;23.394;2024-02-21T04:28:38;11.57;;;6.00;;
77722;SDS011;67811;42.656;23.394;2024-02-21T04:32:43;12.47;;;5.77;;
77722;SDS011;67811;42.656;23.394;2024-02-21T04:36:48;12.27;;;6.07;;
77722;SDS011;67811;42.656;23.394;2024-02-21T04:40:54;10.80;;;6.03;;
77722;SDS011;67811;42.656;23.394;2024-02-21T04:45:00;12.13;;;6.43;;
77722;SDS011;67811;42.656;23.394;2024-02-21T04:49:05;14.07;;;5.65;;
77722;SDS011;67811;42.656;23.394;2024-02-21T04:53:11;11.45;;;6.05;;
77722;SDS011;67811;42.656;23.394;2024-02-21T04:57:16;12.98;;;6.22;;
77722;SDS011;67811;42.656;23.394;2024-02-21T05:01:21;12.13;;;6.07;;
77722;SDS011;67811;42.656;23.394;2024-02-21T05:05:26;11.90;;;6.17;;
77722;SDS011;67811;42.656;23.394;2024-02-21T05:09:32;11.20;;;5.57;;
77722;SDS011;67811;42.656;23.394;2024-02-21T05:13:37;14.77;;;7.47;;
77722;SDS011;67811;42.656;23.394;2024-02-21T05:17:42;12.20;;;5.90;;
77722;SDS011;67811;42.656;23.394;2024-02-21T05:21:47;12.13;;;6.17;;
77722;SDS011;67811;42.656;23.394;2024-02-21T05:25:53;12.50;;;6.30;;
77722;SDS011;67811;42.656;23.394;2024-02-21T05:29:58;12.13;;;6.47;;
77722;SDS011;67811;42.656;23.394;2024-02-21T05:34:04;14.77;;;7.45;;
77722;SDS011;67811;42.656;23.394;2024-02-21T05:38:09;11.02;;;6.95;;
77722;SDS011;67811;42.656;23.394;2024-02-21T05:42:14;16.25;;;7.85;;
77722;SDS011;67811;42.656;23.394;2024-02-21T05:46:20;12.60;;;6.93;;
77722;SDS011;67811;42.656;23.394;2024-02-21T05:50:25;13.30;;;8.30;;
77722;SDS011;67811;42.656;23.394;2024-02-21T05:54:30;14.57;;;8.37;;
77722;SDS011;67811;42.656;23.394;2024-02-21T05:58:35;15.30;;;8.30;;
77722;SDS011;67811;42.656;23.394;2024-02-21T06:02:41;14.18;;;7.60;;
77722;SDS011;67811;42.656;23.394;2024-02-21T06:06:46;18.17;;;10.10;;
77722;SDS011;67811;42.656;23.394;2024-02-21T06:10:52;19.42;;;9.38;;
77722;SDS011;67811;42.656;23.394;2024-02-21T06:14:57;19.23;;;10.30;;
77722;SDS011;67811;42.656;23.394;2024-02-21T06:19:02;18.63;;;10.10;;
77722;SDS011;67811;42.656;23.394;2024-02-21T06:23:08;16.93;;;9.60;;
77722;SDS011;67811;42.656;23.394;2024-02-21T06:27:13;14.73;;;8.13;;
77722;SDS011;67811;42.656;23.394;2024-02-21T06:31:18;15.82;;;9.35;;
77722;SDS011;67811;42.656;23.394;2024-02-21T06:35:23;14.47;;;8.53;;
77722;SDS011;67811;42.656;23.394;2024-02-21T06:39:29;15.00;;;7.80;;
77722;SDS011;67811;42.656;23.394;2024-02-21T06:43:34;13.73;;;7.75;;
77722;SDS011;67811;42.656;23.394;2024-02-21T06:47:39;12.13;;;7.13;;
77722;SDS011;67811;42.656;23.394;2024-02-21T06:51:45;13.93;;;7.70;;
77722;SDS011;67811;42.656;23.394;2024-02-21T06:55:50;15.77;;;7.37;;
77722;SDS011;67811;42.656;23.394;2024-02-21T06:59:55;24.90;;;8.57;;
77722;SDS011;67811;42.656;23.394;2024-02-21T07:04:00;16.07;;;8.63;;
77722;SDS011;67811;42.656;23.394;2024-02-21T07:08:06;20.48;;;9.52;;
77722;SDS011;67811;42.656;23.394;2024-02-21T07:12:11;21.40;;;10.93;;
77722;SDS011;67811;42.656;23.394;2024-02-21T07:16:16;21.77;;;11.65;;
77722;SDS011;67811;42.656;23.394;2024-02-21T07:20:21;22.60;;;11.20;;
77722;SDS011;67811;42.656;23.394;2024-02-21T07:24:27;22.70;;;11.50;;
77722;SDS011;67811;42.656;23.394;2024-02-21T07:28:32;20.48;;;11.02;;
77722;SDS011;67811;42.656;23.394;2024-02-21T07:32:37;18.67;;;11.37;;
77722;SDS011;67811;42.656;23.394;2024-02-21T07:36:42;24.00;;;11.30;;
77722;SDS011;67811;42.656;23.394;2024-02-21T07:40:48;22.02;;;12.15;;
77722;SDS011;67811;42.656;23.394;2024-02-21T07:44:53;18.80;;;11.63;;
77722;SDS011;67811;42.656;23.394;2024-02-21T07:49:00;18.93;;;10.47;;
77722;SDS011;67811;42.656;23.394;2024-02-21T07:53:05;20.33;;;11.77;;
77722;SDS011;67811;42.656;23.394;2024-02-21T07:57:10;19.07;;;10.53;;
77722;SDS011;67811;42.656;23.394;2024-02-21T08:01:19;21.25;;;12.45;;
77722;SDS011;67811;42.656;23.394;2024-02-21T08:05:24;23.67;;;12.98;;
77722;SDS011;67811;42.656;23.394;2024-02-21T08:09:29;20.27;;;11.45;;
77722;SDS011;67811;42.656;23.394;2024-02-21T08:13:35;16.70;;;8.93;;
77722;SDS011;67811;42.656;23.394;2024-02-21T08:17:40;19.13;;;8.80;;
77722;SDS011;67811;42.656;23.394;2024-02-21T08:21:45;18.63;;;9.77;;
77722;SDS011;67811;42.656;23.394;2024-02-21T08:25:50;18.03;;;9.10;;
77722;SDS011;67811;42.656;23.394;2024-02-21T08:29:56;15.82;;;9.10;;
77722;SDS011;67811;42.656;23.394;2024-02-21T08:34:01;17.17;;;9.67;;
77722;SDS011;67811;42.656;23.394;2024-02-21T08:38:06;14.60;;;8.60;;
77722;SDS011;67811;42.656;23.394;2024-02-21T08:42:12;19.60;;;9.67;;
77722;SDS011;67811;42.656;23.394;2024-02-21T08:46:17;16.03;;;8.70;;
77722;SDS011;67811;42.656;23.394;2024-02-21T08:50:22;17.40;;;9.07;;
77722;SDS011;67811;42.656;23.394;2024-02-21T08:54:28;15.13;;;7.27;;
77722;SDS011;67811;42.656;23.394;2024-02-21T08:58:34;12.50;;;7.22;;
77722;SDS011;67811;42.656;23.394;2024-02-21T09:02:41;13.30;;;8.25;;
77722;SDS011;67811;42.656;23.394;2024-02-21T09:06:47;14.70;;;8.70;;
77722;SDS011;67811;42.656;23.394;2024-02-21T09:10:52;15.10;;;7.85;;
77722;SDS011;67811;42.656;23.394;2024-02-21T09:14:58;13.70;;;8.38;;
77722;SDS011;67811;42.656;23.394;2024-02-21T09:19:03;14.67;;;8.97;;
77722;SDS011;67811;42.656;23.394;2024-02-21T09:23:09;15.40;;;8.73;;
77722;SDS011;67811;42.656;23.394;2024-02-21T09:27:14;13.77;;;8.27;;
77722;SDS011;67811;42.656;23.394;2024-02-21T09:31:19;15.75;;;7.95;;
77722;SDS011;67811;42.656;23.394;2024-02-21T09:35:25;12.88;;;7.28;;
77722;SDS011;67811;42.656;23.394;2024-02-21T09:39:30;13.65;;;8.15;;
77722;SDS011;67811;42.656;23.394;2024-02-21T09:43:35;15.17;;;8.63;;
77722;SDS011;67811;42.656;23.394;2024-02-21T09:52:08;13.60;;;8.52;;
77722;SDS011;67811;42.656;23.394;2024-02-21T09:56:15;15.65;;;8.18;;
77722;SDS011;67811;42.656;23.394;2024-02-21T10:00:20;13.77;;;8.33;;
77722;SDS011;67811;42.656;23.394;2024-02-21T10:04:25;15.67;;;8.57;;
77722;SDS011;67811;42.656;23.394;2024-02-21T10:08:31;13.98;;;7.72;;
77722;SDS011;67811;42.656;23.394;2024-02-21T10:12:36;12.60;;;7.83;;
77722;SDS011;67811;42.656;23.394;2024-02-21T10:16:41;13.17;;;8.67;;
77722;SDS011;67811;42.656;23.394;2024-02-21T10:20:46;14.55;;;7.70;;
77722;SDS011;67811;42.656;23.394;2024-02-21T10:24:52;11.80;;;7.30;;
77722;SDS011;67811;42.656;23.394;2024-02-21T10:28:57;15.13;;;7.30;;
77722;SDS011;67811;42.656;23.394;2024-02-21T10:33:02;9.47;;;6.23;;
77722;SDS011;67811;42.656;23.394;2024-02-21T10:37:10;11.35;;;6.95;;
77722;SDS011;67811;42.656;23.394;2024-02-21T10:41:15;22.60;;;6.93;;
77722;SDS011;67811;42.656;23.394;2024-02-21T10:45:26;12.50;;;6.20;;
77722;SDS011;67811;42.656;23.394;2024-02-21T10:49:41;10.65;;;6.78;;
77722;SDS011;67811;42.656;23.394;2024-02-21T10:57:58;11.13;;;5.95;;
77722;SDS011;67811;42.656;23.394;2024-02-21T11:02:03;11.80;;;5.95;;
77722;SDS011;67811;42.656;23.394;2024-02-21T11:06:10;10.53;;;6.30;;
77722;SDS011;67811;42.656;23.394;2024-02-21T11:10:25;12.85;;;7.22;;
77722;SDS011;67811;42.656;23.394;2024-02-21T11:14:32;9.15;;;5.05;;
77722;SDS011;67811;42.656;23.394;2024-02-21T11:18:38;8.20;;;4.93;;
77722;SDS011;67811;42.656;23.394;2024-02-21T11:22:43;7.83;;;4.60;;
77722;SDS011;67811;42.656;23.394;2024-02-21T11:26:48;7.30;;;4.57;;
77722;SDS011;67811;42.656;23.394;2024-02-21T11:31:04;8.13;;;5.03;;
77722;SDS011;67811;42.656;23.394;2024-02-21T11:35:18;8.88;;;5.35;;
77722;SDS011;67811;42.656;23.394;2024-02-21T11:39:24;6.85;;;3.83;;
77722;SDS011;67811;42.656;23.394;2024-02-21T11:43:31;10.45;;;3.38;;
77722;SDS011;67811;42.656;23.394;2024-02-21T11:47:36;6.43;;;3.60;;
77722;SDS011;67811;42.656;23.394;2024-02-21T11:51:41;5.50;;;3.03;;
77722;SDS011;67811;42.656;23.394;2024-02-21T11:55:46;5.82;;;3.78;;
77722;SDS011;67811;42.656;23.394;2024-02-21T11:59:52;6.90;;;4.20;;
77722;SDS011;67811;42.656;23.394;2024-02-21T12:03:57;8.13;;;4.07;;
77722;SDS011;67811;42.656;23.394;2024-02-21T12:08:03;5.70;;;3.13;;
77722;SDS011;67811;42.656;23.394;2024-02-21T12:12:09;6.57;;;4.63;;
77722;SDS011;67811;42.656;23.394;2024-02-21T12:16:15;7.03;;;4.00;;
77722;SDS011;67811;42.656;23.394;2024-02-21T12:20:20;8.40;;;3.30;;
77722;SDS011;67811;42.656;23.394;2024-02-21T12:24:27;7.57;;;3.50;;
77722;SDS011;67811;42.656;23.394;2024-02-21T12:28:33;7.13;;;4.03;;
77722;SDS011;67811;42.656;23.394;2024-02-21T12:32:38;10.30;;;4.93;;
77722;SDS011;67811;42.656;23.394;2024-02-21T12:36:44;7.77;;;4.47;;
77722;SDS011;67811;42.656;23.394;2024-02-21T12:40:50;7.05;;;3.85;;
77722;SDS011;67811;42.656;23.394;2024-02-21T12:44:55;8.63;;;4.97;;
77722;SDS011;67811;42.656;23.394;2024-02-21T12:49:01;9.07;;;4.60;;
77722;SDS011;67811;42.656;23.394;2024-02-21T12:53:07;7.82;;;4.00;;
77722;SDS011;67811;42.656;23.394;2024-02-21T12:57:12;6.73;;;4.43;;
77722;SDS011;67811;42.656;23.394;2024-02-21T13:01:17;5.67;;;3.73;;
77722;SDS011;67811;42.656;23.394;2024-02-21T13:05:23;8.40;;;3.87;;
77722;SDS011;67811;42.656;23.394;2024-02-21T13:09:28;12.80;;;5.43;;
77722;SDS011;67811;42.656;23.394;2024-02-21T13:13:33;10.13;;;6.00;;
77722;SDS011;67811;42.656;23.394;2024-02-21T13:17:38;9.90;;;6.40;;
77722;SDS011;67811;42.656;23.394;2024-02-21T13:21:43;9.43;;;5.13;;
77722;SDS011;67811;42.656;23.394;2024-02-21T13:25:49;8.87;;;4.97;;
77722;SDS011;67811;42.656;23.394;2024-02-21T13:29:54;6.70;;;4.37;;
77722;SDS011;67811;42.656;23.394;2024-02-21T13:33:59;8.07;;;5.25;;
77722;SDS011;67811;42.656;23.394;2024-02-21T13:38:04;9.30;;;6.27;;
77722;SDS011;67811;42.656;23.394;2024-02-21T13:42:10;10.80;;;6.53;;
77722;SDS011;67811;42.656;23.394;2024-02-21T13:46:15;9.80;;;5.83;;
77722;SDS011;67811;42.656;23.394;2024-02-21T13:50:22;6.47;;;3.60;;
77722;SDS011;67811;42.656;23.394;2024-02-21T13:54:28;8.23;;;4.38;;
77722;SDS011;67811;42.656;23.394;2024-02-21T13:58:34;8.95;;;5.15;;
77722;SDS011;67811;42.656;23.394;2024-02-21T14:02:39;11.00;;;5.40;;
77722;SDS011;67811;42.656;23.394;2024-02-21T14:06:44;9.25;;;5.25;;
77722;SDS011;67811;42.656;23.394;2024-02-21T14:10:49;9.03;;;4.47;;
77722;SDS011;67811;42.656;23.394;2024-02-21T14:14:55;8.68;;;4.90;;
77722;SDS011;67811;42.656;23.394;2024-02-21T14:19:00;8.43;;;4.13;;
77722;SDS011;67811;42.656;23.394;2024-02-21T14:23:05;10.25;;;5.38;;
77722;SDS011;67811;42.656;23.394;2024-02-21T14:27:10;7.00;;;4.18;;
77722;SDS011;67811;42.656;23.394;2024-02-21T14:31:16;8.43;;;4.40;;
77722;SDS011;67811;42.656;23.394;2024-02-21T14:35:21;6.27;;;3.73;;
77722;SDS011;67811;42.656;23.394;2024-02-21T14:39:26;8.53;;;4.53;;
77722;SDS011;67811;42.656;23.394;2024-02-21T14:43:31;8.23;;;4.40;;
77722;SDS011;67811;42.656;23.394;2024-02-21T14:47:37;9.88;;;5.10;;
77722;SDS011;67811;42.656;23.394;2024-02-21T14:51:42;6.97;;;4.33;;
77722;SDS011;67811;42.656;23.394;2024-02-21T14:55:47;12.87;;;4.83;;
77722;SDS011;67811;42.656;23.394;2024-02-21T14:59:52;8.33;;;4.30;;
77722;SDS011;67811;42.656;23.394;2024-02-21T15:03:58;8.23;;;4.28;;
77722;SDS011;67811;42.656;23.394;2024-02-21T15:08:03;9.10;;;4.67;;
77722;SDS011;67811;42.656;23.394;2024-02-21T15:12:09;7.97;;;4.75;;
77722;SDS011;67811;42.656;23.394;2024-02-21T15:16:14;6.63;;;3.90;;
77722;SDS011;67811;42.656;23.394;2024-02-21T15:20:19;8.73;;;5.37;;
77722;SDS011;67811;42.656;23.394;2024-02-21T15:24:25;7.65;;;5.40;;
77722;SDS011;67811;42.656;23.394;2024-02-21T15:28:30;10.18;;;4.88;;
77722;SDS011;67811;42.656;23.394;2024-02-21T15:32:35;9.80;;;5.30;;
77722;SDS011;67811;42.656;23.394;2024-02-21T15:36:41;8.13;;;4.93;;
77722;SDS011;67811;42.656;23.394;2024-02-21T15:40:46;9.55;;;5.47;;
77722;SDS011;67811;42.656;23.394;2024-02-21T15:44:52;8.30;;;4.95;;
77722;SDS011;67811;42.656;23.394;2024-02-21T15:48:57;14.83;;;5.50;;
77722;SDS011;67811;42.656;23.394;2024-02-21T15:53:02;10.00;;;5.05;;
77722;SDS011;67811;42.656;23.394;2024-02-21T15:57:08;8.70;;;5.10;;
77722;SDS011;67811;42.656;23.394;2024-02-21T16:01:13;10.00;;;4.97;;
77722;SDS011;67811;42.656;23.394;2024-02-21T16:05:18;9.85;;;5.07;;
77722;SDS011;67811;42.656;23.394;2024-02-21T16:09:24;8.23;;;5.13;;
77722;SDS011;67811;42.656;23.394;2024-02-21T16:13:29;9.50;;;5.50;;
77722;SDS011;67811;42.656;23.394;2024-02-21T16:17:34;11.13;;;5.32;;
77722;SDS011;67811;42.656;23.394;2024-02-21T16:21:39;9.27;;;5.93;;
77722;SDS011;67811;42.656;23.394;2024-02-21T16:25:45;10.88;;;6.00;;
77722;SDS011;67811;42.656;23.394;2024-02-21T16:29:50;9.18;;;4.80;;
77722;SDS011;67811;42.656;23.394;2024-02-21T16:33:55;9.73;;;5.50;;
77722;SDS011;67811;42.656;23.394;2024-02-21T16:38:00;12.15;;;6.32;;
77722;SDS011;67811;42.656;23.394;2024-02-21T16:42:06;10.52;;;6.38;;
77722;SDS011;67811;42.656;23.394;2024-02-21T16:46:11;11.73;;;6.57;;
77722;SDS011;67811;42.656;23.394;2024-02-21T16:50:17;11.10;;;6.55;;
77722;SDS011;67811;42.656;23.394;2024-02-21T16:54:23;12.88;;;6.45;;
77722;SDS011;67811;42.656;23.394;2024-02-21T16:58:29;10.77;;;5.80;;
77722;SDS011;67811;42.656;23.394;2024-02-21T17:02:34;12.15;;;6.80;;
77722;SDS011;67811;42.656;23.394;2024-02-21T17:06:39;12.18;;;5.95;;
77722;SDS011;67811;42.656;23.394;2024-02-21T17:10:45;10.02;;;5.97;;
77722;SDS011;67811;42.656;23.394;2024-02-21T17:14:50;11.32;;;7.25;;
77722;SDS011;67811;42.656;23.394;2024-02-21T17:18:55;15.40;;;6.80;;
77722;SDS011;67811;42.656;23.394;2024-02-21T17:23:01;15.02;;;7.18;;
77722;SDS011;67811;42.656;23.394;2024-02-21T17:27:06;9.77;;;6.00;;
77722;SDS011;67811;42.656;23.394;2024-02-21T17:31:11;10.90;;;6.38;;
77722;SDS011;67811;42.656;23.394;2024-02-21T17:35:17;12.77;;;7.25;;
77722;SDS011;67811;42.656;23.394;2024-02-21T17:39:22;15.53;;;8.20;;
77722;SDS011;67811;42.656;23.394;2024-02-21T17:43:28;11.48;;;7.78;;
77722;SDS011;67811;42.656;23.394;2024-02-21T17:47:33;12.60;;;7.40;;
77722;SDS011;67811;42.656;23.394;2024-02-21T17:51:38;13.17;;;7.37;;
77722;SDS011;67811;42.656;23.394;2024-02-21T17:55:43;13.90;;;8.00;;
77722;SDS011;67811;42.656;23.394;2024-02-21T17:59:49;16.57;;;8.53;;
77722;SDS011;67811;42.656;23.394;2024-02-21T18:03:54;11.18;;;6.55;;
77722;SDS011;67811;42.656;23.394;2024-02-21T18:07:59;8.53;;;5.47;;
77722;SDS011;67811;42.656;23.394;2024-02-21T18:12:04;8.82;;;5.43;;
77722;SDS011;67811;42.656;23.394;2024-02-21T18:16:10;6.30;;;3.90;;
77722;SDS011;67811;42.656;23.394;2024-02-21T18:20:15;9.98;;;6.35;;
77722;SDS011;67811;42.656;23.394;2024-02-21T18:24:20;9.97;;;5.70;;
77722;SDS011;67811;42.656;23.394;2024-02-21T18:28:26;8.37;;;5.37;;
77722;SDS011;67811;42.656;23.394;2024-02-21T18:32:31;8.00;;;4.57;;
77722;SDS011;67811;42.656;23.394;2024-02-21T18:36:36;8.55;;;4.82;;
77722;SDS011;67811;42.656;23.394;2024-02-21T18:40:41;9.10;;;5.03;;
77722;SDS011;67811;42.656;23.394;2024-02-21T18:44:47;7.15;;;4.60;;
77722;SDS011;67811;42.656;23.394;2024-02-21T18:48:52;14.35;;;5.30;;
77722;SDS011;67811;42.656;23.394;2024-02-21T18:52:57;10.00;;;5.57;;
77722;SDS011;67811;42.656;23.394;2024-02-21T18:57:02;8.10;;;4.20;;
77722;SDS011;67811;42.656;23.394;2024-02-21T19:01:08;8.13;;;4.50;;
77722;SDS011;67811;42.656;23.394;2024-02-21T19:05:13;10.35;;;5.68;;
77722;SDS011;67811;42.656;23.394;2024-02-21T19:09:18;9.17;;;5.10;;
77722;SDS011;67811;42.656;23.394;2024-02-21T19:13:24;7.88;;;4.88;;
77722;SDS011;67811;42.656;23.394;2024-02-21T19:17:29;7.07;;;4.32;;
77722;SDS011;67811;42.656;23.394;2024-02-21T19:21:34;8.40;;;5.00;;
77722;SDS011;67811;42.656;23.394;2024-02-21T19:25:40;7.60;;;5.15;;
77722;SDS011;67811;42.656;23.394;2024-02-21T19:29:45;9.13;;;4.65;;
77722;SDS011;67811;42.656;23.394;2024-02-21T19:33:50;7.07;;;4.00;;
77722;SDS011;67811;42.656;23.394;2024-02-21T19:37:58;7.23;;;3.97;;
77722;SDS011;67811;42.656;23.394;2024-02-21T19:46:09;5.35;;;3.08;;
77722;SDS011;67811;42.656;23.394;2024-02-21T19:50:14;5.20;;;3.00;;
77722;SDS011;67811;42.656;23.394;2024-02-21T19:54:19;6.53;;;3.03;;
77722;SDS011;67811;42.656;23.394;2024-02-21T19:58:25;4.70;;;2.53;;
77722;SDS011;67811;42.656;23.394;2024-02-21T20:02:30;4.82;;;2.33;;
77722;SDS011;67811;42.656;23.394;2024-02-21T20:06:36;6.03;;;2.40;;
77722;SDS011;67811;42.656;23.394;2024-02-21T20:10:41;3.85;;;2.20;;
77722;SDS011;67811;42.656;23.394;2024-02-21T20:14:46;3.35;;;1.45;;
77722;SDS011;67811;42.656;23.394;2024-02-21T20:18:51;3.85;;;1.98;;
77722;SDS011;67811;42.656;23.394;2024-02-21T20:22:57;3.70;;;1.60;;
77722;SDS011;67811;42.656;23.394;2024-02-21T20:27:02;5.07;;;2.43;;
77722;SDS011;67811;42.656;23.394;2024-02-21T20:31:07;2.97;;;1.05;;
77722;SDS011;67811;42.656;23.394;2024-02-21T20:35:13;2.72;;;1.40;;
77722;SDS011;67811;42.656;23.394;2024-02-21T20:39:18;2.67;;;1.20;;
77722;SDS011;67811;42.656;23.394;2024-02-21T20:43:23;2.27;;;1.13;;
77722;SDS011;67811;42.656;23.394;2024-02-21T20:47:28;2.40;;;0.97;;
77722;SDS011;67811;42.656;23.394;2024-02-21T20:51:34;2.17;;;1.10;;
77722;SDS011;67811;42.656;23.394;2024-02-21T20:55:39;2.72;;;1.20;;
77722;SDS011;67811;42.656;23.394;2024-02-21T20:59:44;2.00;;;0.93;;
77722;SDS011;67811;42.656;23.394;2024-02-21T21:03:50;3.53;;;1.60;;
77722;SDS011;67811;42.656;23.394;2024-02-21T21:07:55;2.95;;;1.30;;
77722;SDS011;67811;42.656;23.394;2024-02-21T21:12:00;2.67;;;1.50;;
77722;SDS011;67811;42.656;23.394;2024-02-21T21:16:06;5.60;;;1.83;;
77722;SDS011;67811;42.656;23.394;2024-02-21T21:20:11;3.92;;;1.58;;
77722;SDS011;67811;42.656;23.394;2024-02-21T21:24:16;2.70;;;1.20;;
77722;SDS011;67811;42.656;23.394;2024-02-21T21:28:22;4.40;;;1.60;;
77722;SDS011;67811;42.656;23.394;2024-02-21T21:32:27;3.53;;;1.53;;
77722;SDS011;67811;42.656;23.394;2024-02-21T21:36:32;3.63;;;1.70;;
77722;SDS011;67811;42.656;23.394;2024-02-21T21:40:37;3.72;;;1.52;;
77722;SDS011;67811;42.656;23.394;2024-02-21T21:44:43;5.13;;;1.80;;
77722;SDS011;67811;42.656;23.394;2024-02-21T21:48:48;5.20;;;1.90;;
77722;SDS011;67811;42.656;23.394;2024-02-21T21:52:53;4.53;;;2.27;;
77722;SDS011;67811;42.656;23.394;2024-02-21T21:56:59;3.83;;;1.80;;
77722;SDS011;67811;42.656;23.394;2024-02-21T22:01:04;3.00;;;1.60;;
77722;SDS011;67811;42.656;23.394;2024-02-21T22:05:09;4.27;;;2.00;;
77722;SDS011;67811;42.656;23.394;2024-02-21T22:09:14;4.88;;;2.30;;
77722;SDS011;67811;42.656;23.394;2024-02-21T22:13:20;7.67;;;3.90;;
77722;SDS011;67811;42.656;23.394;2024-02-21T22:17:25;5.13;;;2.30;;
77722;SDS011;67811;42.656;23.394;2024-02-21T22:21:30;7.35;;;3.72;;
77722;SDS011;67811;42.656;23.394;2024-02-21T22:25:35;10.17;;;5.27;;
77722;SDS011;67811;42.656;23.394;2024-02-21T22:29:40;10.07;;;5.95;;
77722;SDS011;67811;42.656;23.394;2024-02-21T22:33:46;14.55;;;7.20;;
77722;SDS011;67811;42.656;23.394;2024-02-21T22:37:51;10.13;;;4.75;;
77722;SDS011;67811;42.656;23.394;2024-02-21T22:41:56;13.10;;;4.88;;
77722;SDS011;67811;42.656;23.394;2024-02-21T22:46:01;8.23;;;4.68;;
77722;SDS011;67811;42.656;23.394;2024-02-21T22:50:07;7.70;;;4.23;;
77722;SDS011;67811;42.656;23.394;2024-02-21T22:54:12;8.20;;;4.65;;
77722;SDS011;67811;42.656;23.394;2024-02-21T22:58:18;8.18;;;4.35;;
77722;SDS011;67811;42.656;23.394;2024-02-21T23:02:23;12.27;;;5.77;;
77722;SDS011;67811;42.656;23.394;2024-02-21T23:06:28;8.68;;;3.83;;
77722;SDS011;67811;42.656;23.394;2024-02-21T23:10:33;8.00;;;5.03;;
77722;SDS011;67811;42.656;23.394;2024-02-21T23:14:39;7.57;;;3.83;;
77722;SDS011;67811;42.656;23.394;2024-02-21T23:18:44;6.43;;;3.60;;
77722;SDS011;67811;42.656;23.394;2024-02-21T23:22:49;8.30;;;4.03;;
77722;SDS011;67811;42.656;23.394;2024-02-21T23:26:55;8.00;;;4.38;;
77722;SDS011;67811;42.656;23.394;2024-02-21T23:31:00;8.47;;;5.10;;
77722;SDS011;67811;42.656;23.394;2024-02-21T23:35:08;8.57;;;4.33;;
77722;SDS011;67811;42.656;23.394;2024-02-21T23:39:14;6.50;;;3.97;;
77722;SDS011;67811;42.656;23.394;2024-02-21T23:43:19;6.27;;;3.83;;
77722;SDS011;67811;42.656;23.394;2024-02-21T23:47:24;5.60;;;3.50;;
77722;SDS011;67811;42.656;23.394;2024-02-21T23:51:29;5.40;;;2.78;;
77722;SDS011;67811;42.656;23.394;2024-02-21T23:55:35;6.33;;;2.57;;
77722;SDS011;67811;42.656;23.394;2024-02-21T23:59:40;6.97;;;3.08;;
